TAP25M LPPT-LPPR
Flight info
| Callsign | TAP25M |
|---|---|
| Flight time | 0h 29m |
| Altitude | 22000 |
| Route | IXIDA DCT ABLEG |
| Aircraft | A320/M-SDE3FGHIRWY/LB1 |
Departure
| Time | 2026-05-06 19:58 |
|---|---|
| Airport | Lisbon Humberto Delgado Airport (LPPT) |
Arrival
| Time | 2026-05-06 20:28 |
|---|---|
| Airport | Francisco de Sá Carneiro Airport (LPPR) |
| Time | Latitude | Longitude | Altitude | Speed | Heading |
|---|---|---|---|---|---|
| 2026-05-06 19:37 | 38.76935 | -9.13081 | 352 ft | 0 kts | 78° |
| 2026-05-06 19:51 | 38.76932 | -9.13101 | 357 ft | 2 kts | 79° |
| 2026-05-06 19:51 | 38.76929 | -9.13121 | 356 ft | 2 kts | 81° |
| 2026-05-06 19:51 | 38.76927 | -9.13142 | 353 ft | 2 kts | 105° |
| 2026-05-06 19:52 | 38.76934 | -9.13154 | 357 ft | 1 kts | 170° |
| 2026-05-06 19:52 | 38.76935 | -9.13154 | 357 ft | 0 kts | 169° |
| 2026-05-06 19:55 | 38.76898 | -9.13144 | 347 ft | 13 kts | 167° |
| 2026-05-06 19:55 | 38.76787 | -9.13151 | 355 ft | 16 kts | 233° |
| 2026-05-06 19:55 | 38.76761 | -9.13288 | 351 ft | 17 kts | 257° |
| 2026-05-06 19:55 | 38.76703 | -9.13421 | 353 ft | 18 kts | 213° |
| 2026-05-06 19:56 | 38.76644 | -9.13546 | 357 ft | 17 kts | 256° |
| 2026-05-06 19:56 | 38.76618 | -9.13705 | 349 ft | 19 kts | 259° |
| 2026-05-06 19:56 | 38.76589 | -9.13883 | 347 ft | 21 kts | 257° |
| 2026-05-06 19:56 | 38.76528 | -9.14058 | 352 ft | 23 kts | 230° |
| 2026-05-06 19:57 | 38.76517 | -9.14241 | 352 ft | 21 kts | 293° |
| 2026-05-06 19:57 | 38.76594 | -9.14404 | 338 ft | 21 kts | 342° |
| 2026-05-06 19:57 | 38.76635 | -9.14394 | 336 ft | 0 kts | 20° |
| 2026-05-06 19:57 | 38.76675 | -9.14374 | 337 ft | 29 kts | 21° |
| 2026-05-06 19:58 | 38.77176 | -9.14110 | 347 ft | 123 kts | 21° |
| 2026-05-06 19:58 | 38.78114 | -9.13637 | 842 ft | 152 kts | 17° |
| 2026-05-06 19:58 | 38.79103 | -9.13072 | 1709 ft | 161 kts | 19° |
| 2026-05-06 19:58 | 38.80180 | -9.12486 | 2255 ft | 178 kts | 18° |
| 2026-05-06 19:59 | 38.81398 | -9.11823 | 2667 ft | 204 kts | 22° |
| 2026-05-06 19:59 | 38.82704 | -9.10857 | 3195 ft | 229 kts | 27° |
| 2026-05-06 19:59 | 38.84133 | -9.09756 | 3864 ft | 248 kts | 27° |
| 2026-05-06 19:59 | 38.85639 | -9.08593 | 4749 ft | 258 kts | 30° |
| 2026-05-06 20:00 | 38.87205 | -9.07378 | 5595 ft | 268 kts | 31° |
| 2026-05-06 20:00 | 38.88822 | -9.06121 | 6535 ft | 274 kts | 32° |
| 2026-05-06 20:00 | 38.90358 | -9.04641 | 7450 ft | 279 kts | 43° |
| 2026-05-06 20:00 | 38.91837 | -9.02999 | 8372 ft | 284 kts | 34° |
| 2026-05-06 20:01 | 38.93663 | -9.02003 | 9279 ft | 289 kts | 11° |
| 2026-05-06 20:01 | 38.95660 | -9.01594 | 10188 ft | 294 kts | 7° |
| 2026-05-06 20:01 | 38.97767 | -9.01194 | 10579 ft | 318 kts | 7° |
| 2026-05-06 20:01 | 39.00028 | -9.00770 | 11067 ft | 335 kts | 7° |
| 2026-05-06 20:02 | 39.02357 | -9.00331 | 11819 ft | 342 kts | 7° |
| 2026-05-06 20:02 | 39.04731 | -8.99874 | 12622 ft | 348 kts | 7° |
| 2026-05-06 20:02 | 39.07139 | -8.99406 | 13453 ft | 352 kts | 7° |
| 2026-05-06 20:02 | 39.09577 | -8.98930 | 14179 ft | 357 kts | 6° |
| 2026-05-06 20:03 | 39.12048 | -8.98449 | 14863 ft | 362 kts | 7° |
| 2026-05-06 20:03 | 39.14549 | -8.97960 | 15549 ft | 367 kts | 6° |
| 2026-05-06 20:03 | 39.17093 | -8.97463 | 16192 ft | 372 kts | 7° |
| 2026-05-06 20:03 | 39.19671 | -8.96960 | 16909 ft | 376 kts | 7° |
| 2026-05-06 20:04 | 39.22278 | -8.96450 | 17572 ft | 382 kts | 7° |
| 2026-05-06 20:04 | 39.24917 | -8.95933 | 18265 ft | 386 kts | 7° |
| 2026-05-06 20:04 | 39.27584 | -8.95411 | 18865 ft | 390 kts | 7° |
| 2026-05-06 20:04 | 39.30279 | -8.94884 | 19453 ft | 394 kts | 7° |
| 2026-05-06 20:05 | 39.32995 | -8.94353 | 20078 ft | 396 kts | 7° |
| 2026-05-06 20:05 | 39.35737 | -8.93819 | 20650 ft | 400 kts | 7° |
| 2026-05-06 20:05 | 39.38504 | -8.93278 | 21249 ft | 403 kts | 7° |
| 2026-05-06 20:05 | 39.41286 | -8.92732 | 21777 ft | 407 kts | 7° |
| 2026-05-06 20:06 | 39.44093 | -8.92180 | 21934 ft | 406 kts | 7° |
| 2026-05-06 20:06 | 39.46867 | -8.91633 | 21965 ft | 402 kts | 7° |
| 2026-05-06 20:06 | 39.49628 | -8.91088 | 21965 ft | 401 kts | 7° |
| 2026-05-06 20:06 | 39.52385 | -8.90545 | 21969 ft | 400 kts | 7° |
| 2026-05-06 20:07 | 39.55142 | -8.90005 | 21967 ft | 401 kts | 7° |
| 2026-05-06 20:07 | 39.57898 | -8.89465 | 21970 ft | 400 kts | 7° |
| 2026-05-06 20:07 | 39.60652 | -8.88922 | 21971 ft | 401 kts | 7° |
| 2026-05-06 20:07 | 39.63410 | -8.88375 | 21972 ft | 400 kts | 7° |
| 2026-05-06 20:08 | 39.66159 | -8.87830 | 21973 ft | 400 kts | 7° |
| 2026-05-06 20:08 | 39.68919 | -8.87285 | 21975 ft | 401 kts | 7° |
| 2026-05-06 20:08 | 39.71677 | -8.86740 | 21990 ft | 400 kts | 7° |
| 2026-05-06 20:08 | 39.74425 | -8.86199 | 21990 ft | 400 kts | 7° |
| 2026-05-06 20:09 | 39.77176 | -8.85659 | 21991 ft | 399 kts | 7° |
| 2026-05-06 20:09 | 39.79921 | -8.85118 | 21989 ft | 399 kts | 7° |
| 2026-05-06 20:09 | 39.82660 | -8.84570 | 21987 ft | 398 kts | 7° |
| 2026-05-06 20:09 | 39.85399 | -8.84021 | 21985 ft | 398 kts | 7° |
| 2026-05-06 20:10 | 39.88134 | -8.83475 | 21984 ft | 398 kts | 7° |
| 2026-05-06 20:10 | 39.90873 | -8.82929 | 21981 ft | 398 kts | 7° |
| 2026-05-06 20:10 | 39.93609 | -8.82388 | 21977 ft | 398 kts | 7° |
| 2026-05-06 20:10 | 39.96348 | -8.81848 | 21976 ft | 398 kts | 7° |
| 2026-05-06 20:11 | 39.99080 | -8.81308 | 21971 ft | 398 kts | 7° |
| 2026-05-06 20:11 | 40.01813 | -8.80763 | 21969 ft | 397 kts | 7° |
| 2026-05-06 20:11 | 40.04548 | -8.80212 | 21935 ft | 398 kts | 7° |
| 2026-05-06 20:11 | 40.07287 | -8.79660 | 21666 ft | 397 kts | 7° |
| 2026-05-06 20:12 | 40.10012 | -8.79111 | 21395 ft | 396 kts | 7° |
| 2026-05-06 20:12 | 40.12728 | -8.78565 | 21135 ft | 394 kts | 7° |
| 2026-05-06 20:12 | 40.15413 | -8.78029 | 20724 ft | 388 kts | 7° |
| 2026-05-06 20:12 | 40.18072 | -8.77503 | 20220 ft | 385 kts | 7° |
| 2026-05-06 20:13 | 40.20717 | -8.76976 | 19711 ft | 383 kts | 7° |
| 2026-05-06 20:13 | 40.23344 | -8.76447 | 19195 ft | 382 kts | 7° |
| 2026-05-06 20:13 | 40.25969 | -8.75917 | 18671 ft | 381 kts | 7° |
| 2026-05-06 20:13 | 40.28583 | -8.75389 | 18137 ft | 380 kts | 7° |
| 2026-05-06 20:14 | 40.31189 | -8.74863 | 17583 ft | 378 kts | 7° |
| 2026-05-06 20:14 | 40.33777 | -8.74343 | 17069 ft | 375 kts | 7° |
| 2026-05-06 20:14 | 40.36350 | -8.73823 | 16566 ft | 373 kts | 7° |
| 2026-05-06 20:14 | 40.38902 | -8.73306 | 16055 ft | 370 kts | 7° |
| 2026-05-06 20:15 | 40.41445 | -8.72792 | 15556 ft | 368 kts | 7° |
| 2026-05-06 20:15 | 40.43968 | -8.72284 | 15061 ft | 366 kts | 7° |
| 2026-05-06 20:15 | 40.46485 | -8.71776 | 14566 ft | 364 kts | 7° |
| 2026-05-06 20:15 | 40.48985 | -8.71269 | 14065 ft | 363 kts | 7° |
| 2026-05-06 20:16 | 40.51472 | -8.70763 | 13538 ft | 361 kts | 8° |
| 2026-05-06 20:16 | 40.53929 | -8.70261 | 13014 ft | 350 kts | 8° |
| 2026-05-06 20:16 | 40.56279 | -8.69780 | 12534 ft | 334 kts | 8° |
| 2026-05-06 20:16 | 40.58562 | -8.69314 | 12065 ft | 332 kts | 8° |
| 2026-05-06 20:17 | 40.60847 | -8.68854 | 11575 ft | 332 kts | 8° |
| 2026-05-06 20:17 | 40.63131 | -8.68395 | 11085 ft | 332 kts | 8° |
| 2026-05-06 20:17 | 40.65416 | -8.67936 | 10596 ft | 332 kts | 9° |
| 2026-05-06 20:17 | 40.67690 | -8.67475 | 10286 ft | 326 kts | 9° |
| 2026-05-06 20:18 | 40.69891 | -8.67026 | 10168 ft | 314 kts | 9° |
| 2026-05-06 20:18 | 40.72016 | -8.66588 | 9978 ft | 305 kts | 9° |
| 2026-05-06 20:18 | 40.74098 | -8.66158 | 9860 ft | 301 kts | 9° |
| 2026-05-06 20:18 | 40.76173 | -8.65732 | 9539 ft | 302 kts | 9° |
| 2026-05-06 20:19 | 40.78247 | -8.65310 | 9117 ft | 301 kts | 9° |
| 2026-05-06 20:19 | 40.80309 | -8.64893 | 8713 ft | 299 kts | 9° |
| 2026-05-06 20:19 | 40.82360 | -8.64476 | 8314 ft | 297 kts | 9° |
| 2026-05-06 20:19 | 40.84392 | -8.64061 | 7907 ft | 293 kts | 9° |
| 2026-05-06 20:20 | 40.86359 | -8.63658 | 7530 ft | 279 kts | 9° |
| 2026-05-06 20:20 | 40.88231 | -8.63275 | 7194 ft | 265 kts | 9° |
| 2026-05-06 20:20 | 40.90006 | -8.62912 | 6876 ft | 252 kts | 9° |
| 2026-05-06 20:20 | 40.91703 | -8.62562 | 6545 ft | 241 kts | 9° |
| 2026-05-06 20:21 | 40.93341 | -8.62227 | 6238 ft | 238 kts | 9° |
| 2026-05-06 20:21 | 40.94979 | -8.61891 | 5904 ft | 239 kts | 9° |
| 2026-05-06 20:21 | 40.96624 | -8.61554 | 5574 ft | 239 kts | 9° |
| 2026-05-06 20:21 | 40.98268 | -8.61279 | 5256 ft | 238 kts | 0° |
| 2026-05-06 20:22 | 40.99884 | -8.61570 | 4929 ft | 230 kts | 348° |
| 2026-05-06 20:22 | 41.01421 | -8.61984 | 4626 ft | 221 kts | 349° |
| 2026-05-06 20:22 | 41.02898 | -8.62379 | 4333 ft | 212 kts | 349° |
| 2026-05-06 20:22 | 41.04320 | -8.62758 | 4043 ft | 205 kts | 349° |
| 2026-05-06 20:23 | 41.05706 | -8.63129 | 3783 ft | 204 kts | 349° |
| 2026-05-06 20:23 | 41.07097 | -8.63497 | 3508 ft | 203 kts | 349° |
| 2026-05-06 20:23 | 41.08465 | -8.63852 | 3234 ft | 197 kts | 349° |
| 2026-05-06 20:23 | 41.09791 | -8.64195 | 2975 ft | 191 kts | 349° |
| 2026-05-06 20:24 | 41.11054 | -8.64525 | 2734 ft | 179 kts | 349° |
| 2026-05-06 20:24 | 41.12244 | -8.64839 | 2478 ft | 169 kts | 349° |
| 2026-05-06 20:24 | 41.13358 | -8.65130 | 2257 ft | 158 kts | 349° |
| 2026-05-06 20:24 | 41.14397 | -8.65403 | 2074 ft | 144 kts | 349° |
| 2026-05-06 20:25 | 41.15339 | -8.65649 | 1869 ft | 134 kts | 349° |
| 2026-05-06 20:25 | 41.16238 | -8.65885 | 1693 ft | 129 kts | 349° |
| 2026-05-06 20:25 | 41.17113 | -8.66114 | 1514 ft | 127 kts | 349° |
| 2026-05-06 20:25 | 41.17978 | -8.66341 | 1342 ft | 126 kts | 349° |
| 2026-05-06 20:26 | 41.18839 | -8.66566 | 1170 ft | 126 kts | 349° |
| 2026-05-06 20:26 | 41.19702 | -8.66793 | 1006 ft | 126 kts | 349° |
| 2026-05-06 20:26 | 41.20563 | -8.67016 | 830 ft | 126 kts | 350° |
| 2026-05-06 20:26 | 41.21417 | -8.67238 | 665 ft | 126 kts | 348° |
| 2026-05-06 20:27 | 41.22273 | -8.67463 | 500 ft | 125 kts | 348° |
| 2026-05-06 20:27 | 41.23124 | -8.67686 | 337 ft | 124 kts | 348° |
| 2026-05-06 20:27 | 41.23945 | -8.67906 | 253 ft | 108 kts | 348° |
| 2026-05-06 20:27 | 41.24510 | -8.68050 | 245 ft | 58 kts | 348° |
| 2026-05-06 20:28 | 41.24812 | -8.68129 | 238 ft | 37 kts | 349° |
| 2026-05-06 20:28 | 41.25087 | -8.68180 | 221 ft | 39 kts | 6° |
| 2026-05-06 20:28 | 41.25307 | -8.68068 | 213 ft | 24 kts | 58° |
| 2026-05-06 20:28 | 41.25297 | -8.68016 | 219 ft | 5 kts | 173° |
| 2026-05-06 20:29 | 41.25236 | -8.68007 | 213 ft | 12 kts | 171° |
| 2026-05-06 20:29 | 41.25158 | -8.67987 | 221 ft | 10 kts | 169° |
| 2026-05-06 20:29 | 41.25078 | -8.67965 | 221 ft | 18 kts | 168° |
| 2026-05-06 20:29 | 41.24957 | -8.67933 | 227 ft | 16 kts | 168° |
| 2026-05-06 20:30 | 41.24861 | -8.67895 | 230 ft | 13 kts | 155° |
| 2026-05-06 20:30 | 41.24635 | -8.67792 | 238 ft | 21 kts | 168° |
| 2026-05-06 20:30 | 41.24505 | -8.67758 | 242 ft | 17 kts | 169° |
| 2026-05-06 20:31 | 41.24401 | -8.67731 | 244 ft | 15 kts | 169° |
| 2026-05-06 20:31 | 41.24280 | -8.67661 | 245 ft | 22 kts | 119° |
| 2026-05-06 20:31 | 41.24173 | -8.67567 | 248 ft | 18 kts | 167° |
| 2026-05-06 20:31 | 41.24033 | -8.67529 | 252 ft | 21 kts | 169° |
| 2026-05-06 20:32 | 41.23896 | -8.67494 | 257 ft | 21 kts | 168° |
| 2026-05-06 20:32 | 41.23793 | -8.67468 | 258 ft | 13 kts | 170° |
| 2026-05-06 20:32 | 41.23773 | -8.67461 | 258 ft | 0 kts | 160° |
| 2026-05-06 20:34 | 41.23762 | -8.67454 | 258 ft | 7 kts | 153° |
| 2026-05-06 20:34 | 41.23742 | -8.67430 | 258 ft | 0 kts | 129° |
| 2026-05-06 20:34 | 41.23725 | -8.67398 | 258 ft | 6 kts | 126° |
| 2026-05-06 20:34 | 41.23699 | -8.67359 | 258 ft | 5 kts | 142° |
| 2026-05-06 20:35 | 41.23674 | -8.67341 | 258 ft | 3 kts | 156° |
| 2026-05-06 20:35 | 41.23656 | -8.67334 | 259 ft | 5 kts | 166° |
| 2026-05-06 20:35 | 41.23635 | -8.67276 | 258 ft | 8 kts | 83° |
| 2026-05-06 20:35 | 41.23637 | -8.67250 | 258 ft | 0 kts | 82° |